Airfield :
LOGIN :

Register | Disclaimer

   EN    FR    IT 

 










Legend :    VFR   Marginal VFR   IFR   Intensive IFR   Very Intensive IFR
Visi :
Ceiling :
>= 8 km
>= 3000ft
5 to 8 km
1000 to 3000 ft
1500m to 5 km
500 to 1000 ft
800 to 1500m
200 to 500 ft
< 800m
< 200 ft
Symbols :   Thunderstorms  Fog  Heavy snow  Heavy precipitations  Wind > 20 kt
SIGMETs :     Misc.  Thunderstorms  Icing  Turbulence  Mountain Waves  Volcanic Ashes







- Airport Elevation : 37 ft
- IATA code : OLB


LIEO - Olbia Costa Smeralda

CURRENT METAR :
  • 262250Z 00000KT 8000 NSC 16/15 Q1009

EXPIRED METARs :
  • 262220Z 12003KT 8000 NSC 16/15 Q1009
  • 262150Z VRB01KT 8000 NSC 16/15 Q1009
  • 262120Z VRB01KT 8000 NSC 17/15 Q1009
  • 262050Z VRB02KT 8000 NSC 17/15 Q1009
  • 262020Z 22003KT 8000 NSC 17/16 Q1009

TAF TAF LIEO
Valid from the 26 at 18:00 until the 27 at 18:00 UTC


261700Z 2618/2718 10010KT 9999 SCT030
BECMG 2618/2620 VRB05KT
TEMPO 2706/2712 RA
BECMG 2707/2709 24012KT
No reported NOTAMs for that airfield.
1 SIGMET reported for the Roma FIR (LIRR) :
 
Embedded thunderstorms
LIRR SIGMET 2 VALID 262300/270100 LIIB- LIRR ROMA FIR EMBD TS FCST WI N4122 E00956 - N4012 E01123 - N3751 E01039 - N3857 E00757 - N4013 E00800 - N4122 E00956 TOP FL280 MOV NE NC=



MET'MAP, your aeronautical weather chart ! - Copyright ORBIFLY December 2007 - Disclaimer

ORBIFLY MET'MAP TEAM :

Programming & Development : Alexandra Zaïnal
Concept & Development : Baudouin d'Aumeries
Co-Development & Prog : Marc-Olivier Méhu
Technical & hardware support : Manuel Goepfert

Contact : metmap@orbifly.com




SOURCES & CREDITS :

   NOAA